Marshallton, Delaware
Current Conditions -  °F | °C
As of 1:51 AM on Thursday 27 Nov 2014 (Local Time) from KILG Reporting Station
Overcast Overcast  
Wind Chill: 28°   Ceiling: 6000
Heat Index: 36°   Visibility: 10mi
Dew Point: 32°   Wind: 12mph
Humidity: 86%   Direction: 300°WNW
Pressure: 29.96"   Gusts: NA
Location:  39.7388°N, 75.6642°W
Report Text: KILG 270651Z 30010KT 10SM OVC060 02/00 A2996 RMK AO2 SLP147 T00220000
Loading
Personal Weather Stations






























Interactive Weather Map New forecast layout! Learn more

10-Day Weather Forecast

Advertisements
Track Severe Weather on mobile